Michigantown, Indiana
Current Conditions -  °F | °C
As of 7:15 PM on Friday 21 Nov 2014 (Local Time) from KFKR Reporting Station
Clear Clear  
Wind Chill: 10°   Ceiling: Unl
Heat Index: 20°   Visibility: 10mi
Dew Point: 14°   Wind: 8mph
Humidity: 79%   Direction: 120°ESE
Pressure: 30.38"   Gusts: NA
Location:  40.33°N, 86.39°W
Report Text: KFKR 220015Z AUTO 12007KT 10SM CLR M07/M10 A3038 RMK AO2 T10691100
Loading
Personal Weather Stations






























Interactive Weather Map New forecast layout! Learn more

10-Day Weather Forecast

Advertisements
Track Severe Weather on mobile